createdAt,value
2019-01-25T00:00:02.982Z,60.90
2019-01-25T00:01:02.992Z,55.10
2019-01-25T00:02:02.974Z,54.00
2019-01-25T00:03:09.978Z,52.90
2019-01-25T00:04:03.955Z,56.10
2019-01-25T00:05:02.949Z,49.30
2019-01-25T00:06:02.924Z,48.80
2019-01-25T00:07:02.929Z,53.20
2019-01-25T00:08:02.902Z,53.00
2019-01-25T00:09:02.903Z,47.60
2019-01-25T00:10:02.905Z,49.50
2019-01-25T00:11:02.869Z,55.90
2019-01-25T00:12:02.865Z,52.20
2019-01-25T00:13:02.868Z,46.40
2019-01-25T00:14:02.859Z,55.70
2019-01-25T00:15:02.835Z,56.20
2019-01-25T00:16:02.817Z,51.40
2019-01-25T00:17:02.835Z,52.00
2019-01-25T00:18:02.796Z,58.00
2019-01-25T00:19:02.821Z,52.70
2019-01-25T00:20:02.801Z,54.80
2019-01-25T00:21:02.770Z,53.60
2019-01-25T00:22:02.753Z,55.10
2019-01-25T00:23:02.748Z,52.40
2019-01-25T00:24:02.775Z,51.70
2019-01-25T00:25:02.827Z,51.50
2019-01-25T00:26:02.731Z,54.10
2019-01-25T00:27:02.708Z,59.30
2019-01-25T00:28:02.697Z,59.70
2019-01-25T00:29:02.697Z,56.70
2019-01-25T00:30:02.675Z,48.30
2019-01-25T00:31:02.665Z,53.40
2019-01-25T00:32:02.719Z,52.20
2019-01-25T00:33:02.643Z,55.30
2019-01-25T00:34:02.650Z,54.60
2019-01-25T00:35:02.628Z,57.50
2019-01-25T00:36:02.609Z,51.90
2019-01-25T00:37:02.602Z,55.40
2019-01-25T00:38:02.638Z,52.30
2019-01-25T00:39:02.606Z,50.30
2019-01-25T00:40:06.333Z,56.10
2019-01-25T00:41:02.567Z,51.60
2019-01-25T00:42:02.548Z,57.00
2019-01-25T00:43:02.538Z,49.60
2019-01-25T00:44:02.590Z,49.60
2019-01-25T00:45:02.544Z,51.50
2019-01-25T00:46:02.513Z,52.90
2019-01-25T00:47:02.501Z,54.10
2019-01-25T00:48:02.486Z,55.40
2019-01-25T00:49:02.494Z,56.50
2019-01-25T00:50:02.470Z,53.50
2019-01-25T00:51:02.490Z,54.30
2019-01-25T00:52:02.447Z,57.70
2019-01-25T00:53:02.478Z,57.20
2019-01-25T00:54:02.429Z,57.20
2019-01-25T00:55:02.432Z,51.50
2019-01-25T00:56:02.409Z,54.30
2019-01-25T00:57:02.417Z,57.70
2019-01-25T00:58:02.412Z,58.50
2019-01-25T00:59:02.422Z,53.80
2019-01-25T01:00:02.373Z,59.80
2019-01-25T01:01:02.370Z,52.70
2019-01-25T01:02:02.343Z,56.20
2019-01-25T01:03:02.339Z,55.40
2019-01-25T01:04:02.361Z,57.10
2019-01-25T01:05:02.452Z,57.50
2019-01-25T01:06:02.303Z,52.50
2019-01-25T01:07:02.300Z,57.50
2019-01-25T01:08:02.283Z,55.00
2019-01-25T01:09:02.276Z,53.60
2019-01-25T01:10:02.276Z,54.90
2019-01-25T01:11:02.259Z,58.80
2019-01-25T01:12:02.246Z,53.80
2019-01-25T01:13:02.230Z,60.00
2019-01-25T01:14:02.276Z,55.80
2019-01-25T01:15:02.228Z,60.60
2019-01-25T01:16:02.199Z,53.30
2019-01-25T01:17:02.207Z,59.80
2019-01-25T01:18:02.183Z,58.20
2019-01-25T01:19:02.170Z,62.40
2019-01-25T01:20:02.178Z,57.20
2019-01-25T01:21:02.152Z,61.90
2019-01-25T01:22:02.136Z,55.20
2019-01-25T01:23:02.138Z,58.70
2019-01-25T01:24:02.125Z,59.60
2019-01-25T01:25:02.151Z,58.10
2019-01-25T01:26:02.101Z,55.00
2019-01-25T01:27:02.089Z,58.80
2019-01-25T01:28:02.075Z,62.10
2019-01-25T01:29:02.094Z,63.50
2019-01-25T01:30:02.077Z,58.20
2019-01-25T01:31:02.045Z,57.20
2019-01-25T01:32:02.051Z,59.70
2019-01-25T01:33:02.025Z,59.80
2019-01-25T01:34:02.018Z,56.20
2019-01-25T01:35:02.058Z,65.00
2019-01-25T01:36:01.995Z,59.90
2019-01-25T01:37:01.987Z,61.20
2019-01-25T01:38:01.974Z,66.00
2019-01-25T01:39:01.965Z,53.30
2019-01-25T01:40:02.003Z,60.10
2019-01-25T01:41:01.969Z,58.50
2019-01-25T01:42:01.932Z,57.00
2019-01-25T01:43:01.927Z,60.90
2019-01-25T01:44:01.914Z,55.10
2019-01-25T01:45:01.979Z,55.80
2019-01-25T01:46:01.893Z,54.70
2019-01-25T01:47:01.903Z,53.50
2019-01-25T01:48:01.878Z,56.60
2019-01-25T01:49:01.859Z,55.90
2019-01-25T01:50:01.868Z,57.20
2019-01-25T01:51:01.840Z,50.60
2019-01-25T01:52:01.831Z,51.30
2019-01-25T01:53:01.846Z,57.10
2019-01-25T01:54:01.813Z,55.60
2019-01-25T01:55:01.861Z,49.50
2019-01-25T01:56:01.787Z,57.80
2019-01-25T01:57:01.781Z,58.10
2019-01-25T01:58:01.767Z,60.60
2019-01-25T01:59:01.788Z,54.60
2019-01-25T02:00:01.766Z,53.50
2019-01-25T02:01:01.737Z,53.90
2019-01-25T02:02:01.727Z,55.50
2019-01-25T02:03:01.718Z,56.20
2019-01-25T02:04:01.705Z,53.60
2019-01-25T02:05:01.772Z,53.00
2019-01-25T02:06:01.685Z,61.20
2019-01-25T02:07:01.677Z,63.90
2019-01-25T02:08:01.662Z,56.70
2019-01-25T02:09:01.658Z,57.10
2019-01-25T02:10:01.676Z,57.10
2019-01-25T02:11:01.663Z,56.10
2019-01-25T02:12:01.624Z,53.80
2019-01-25T02:13:01.615Z,57.10
2019-01-25T02:14:01.700Z,56.70
2019-01-25T02:15:01.598Z,54.10
2019-01-25T02:16:01.601Z,55.30
2019-01-25T02:17:01.597Z,56.30
2019-01-25T02:18:01.565Z,56.20
2019-01-25T02:19:01.559Z,54.10
2019-01-25T02:20:01.545Z,52.20
2019-01-25T02:21:01.535Z,57.40
2019-01-25T02:22:01.543Z,57.30
2019-01-25T02:23:01.555Z,57.00
2019-01-25T02:24:01.498Z,51.00
2019-01-25T02:25:01.490Z,50.30
2019-01-25T02:26:01.485Z,57.20
2019-01-25T02:27:01.477Z,59.80
2019-01-25T02:28:01.477Z,60.90
2019-01-25T02:29:01.473Z,57.10
2019-01-25T02:30:01.446Z,59.30
2019-01-25T02:31:01.426Z,61.40
2019-01-25T02:32:01.417Z,61.10
2019-01-25T02:33:01.412Z,59.10
2019-01-25T02:34:01.429Z,61.20
2019-01-25T02:35:01.405Z,63.50
2019-01-25T02:36:01.381Z,56.90
2019-01-25T02:37:01.386Z,67.10
2019-01-25T02:38:01.358Z,64.20
2019-01-25T02:39:01.343Z,65.60
2019-01-25T02:40:01.356Z,58.40
2019-01-25T02:41:01.335Z,62.40
2019-01-25T02:42:01.316Z,71.00
2019-01-25T02:43:01.322Z,69.10
2019-01-25T02:44:01.302Z,58.30
2019-01-25T02:45:01.294Z,69.90
2019-01-25T02:46:01.290Z,75.00
2019-01-25T02:47:01.303Z,88.60
2019-01-25T02:48:01.250Z,88.60
2019-01-25T02:49:01.244Z,89.80
2019-01-25T02:50:01.258Z,95.40
2019-01-25T02:51:01.229Z,95.40
2019-01-25T02:52:01.210Z,93.90
2019-01-25T02:53:03.927Z,96.90
2019-01-25T02:54:01.188Z,98.40
2019-01-25T02:55:01.196Z,107.70
2019-01-25T02:56:01.170Z,100.00
2019-01-25T02:57:01.165Z,108.10
2019-01-25T02:58:01.147Z,95.30
2019-01-25T02:59:01.187Z,110.10
2019-01-25T03:00:01.127Z,99.60
2019-01-25T03:01:01.152Z,105.90
2019-01-25T03:02:01.109Z,97.80
2019-01-25T03:03:01.098Z,98.40
2019-01-25T03:04:01.087Z,104.10
2019-01-25T03:05:01.143Z,101.40
2019-01-25T03:06:01.082Z,100.60
2019-01-25T03:07:01.062Z,105.20
2019-01-25T03:08:01.055Z,101.20
2019-01-25T03:09:01.036Z,104.00
2019-01-25T03:10:01.034Z,97.00
2019-01-25T03:11:01.132Z,98.40
2019-01-25T03:12:01.016Z,111.60
2019-01-25T03:13:00.996Z,97.30
2019-01-25T03:14:00.990Z,103.00
2019-01-25T03:15:00.979Z,101.40
2019-01-25T03:16:01.027Z,101.90
2019-01-25T03:17:00.975Z,101.60
2019-01-25T03:18:00.947Z,106.90
2019-01-25T03:19:00.933Z,101.80
2019-01-25T03:20:00.944Z,104.30
2019-01-25T03:21:00.912Z,101.20
2019-01-25T03:22:00.905Z,106.40
2019-01-25T03:23:00.920Z,103.80
2019-01-25T03:24:00.880Z,100.50
2019-01-25T03:25:00.876Z,104.60
2019-01-25T03:26:00.879Z,91.20
2019-01-25T03:27:00.851Z,102.50
2019-01-25T03:28:00.844Z,104.80
2019-01-25T03:29:00.856Z,109.60
2019-01-25T03:30:00.824Z,97.90
2019-01-25T03:31:00.815Z,97.50
2019-01-25T03:32:00.836Z,111.60
2019-01-25T03:33:00.790Z,106.40
2019-01-25T03:34:00.786Z,102.90
2019-01-25T03:35:00.835Z,94.20
2019-01-25T03:36:00.755Z,97.60
2019-01-25T03:37:00.745Z,96.60
2019-01-25T03:38:00.760Z,99.30
2019-01-25T03:39:00.724Z,106.60
2019-01-25T03:40:00.724Z,101.90
2019-01-25T03:41:00.714Z,109.50
2019-01-25T03:42:00.719Z,113.30
2019-01-25T03:43:00.683Z,97.40
2019-01-25T03:44:00.724Z,102.50
2019-01-25T03:45:00.670Z,107.60
2019-01-25T03:46:00.653Z,91.00
2019-01-25T03:47:00.698Z,102.30
2019-01-25T03:48:00.634Z,106.70
2019-01-25T03:49:00.623Z,92.10
2019-01-25T03:50:00.652Z,102.50
2019-01-25T03:51:00.609Z,113.80
2019-01-25T03:52:00.611Z,110.10
2019-01-25T03:53:00.601Z,94.20
2019-01-25T03:54:00.570Z,110.10
2019-01-25T03:55:00.560Z,100.50
2019-01-25T03:56:00.553Z,103.60
2019-01-25T03:57:00.554Z,105.90
2019-01-25T03:58:00.527Z,106.80
2019-01-25T03:59:00.540Z,106.50
2019-01-25T04:00:00.508Z,101.90
2019-01-25T04:01:00.500Z,105.50
2019-01-25T04:02:00.506Z,110.60
2019-01-25T04:03:00.480Z,108.50
2019-01-25T04:04:00.467Z,110.20
2019-01-25T04:05:00.697Z,103.30
2019-01-25T04:06:00.455Z,107.70
2019-01-25T04:07:00.472Z,102.30
2019-01-25T04:08:00.424Z,116.90
2019-01-25T04:09:00.418Z,111.50
2019-01-25T04:10:00.405Z,105.40
2019-01-25T04:11:03.804Z,108.00
2019-01-25T04:12:00.388Z,107.50
2019-01-25T04:13:00.396Z,95.60
2019-01-25T04:14:00.363Z,113.00
2019-01-25T04:15:00.353Z,106.60
2019-01-25T04:16:00.348Z,106.70
2019-01-25T04:17:00.354Z,117.80
2019-01-25T04:18:00.325Z,105.70
2019-01-25T04:19:00.329Z,108.90
2019-01-25T04:20:00.302Z,105.70
2019-01-25T04:21:00.291Z,104.40
2019-01-25T04:22:00.286Z,103.70
2019-01-25T04:23:00.293Z,115.30
2019-01-25T04:24:00.262Z,108.90
2019-01-25T04:25:00.402Z,114.20
2019-01-25T04:26:00.249Z,111.20
2019-01-25T04:27:00.242Z,115.60
2019-01-25T04:28:00.236Z,117.30
2019-01-25T04:29:00.229Z,118.60
2019-01-25T04:30:00.248Z,114.80
2019-01-25T04:31:00.190Z,116.70
2019-01-25T04:32:00.204Z,122.90
2019-01-25T04:33:00.231Z,117.50
2019-01-25T04:34:00.155Z,132.50
2019-01-25T04:35:00.262Z,116.90
2019-01-25T04:36:00.159Z,121.20
2019-01-25T04:37:00.148Z,118.70
2019-01-25T04:38:00.122Z,121.00
2019-01-25T04:39:00.106Z,117.20
2019-01-25T04:40:00.190Z,117.60
2019-01-25T04:41:00.098Z,135.70
2019-01-25T04:42:00.100Z,120.60
2019-01-25T04:43:00.067Z,115.30
2019-01-25T04:44:00.056Z,128.70
2019-01-25T04:45:00.050Z,131.30
2019-01-25T04:46:00.037Z,123.30
2019-01-25T04:47:00.083Z,117.30
2019-01-25T04:48:00.016Z,132.50
2019-01-25T04:49:00.008Z,122.60
2019-01-25T04:49:59.991Z,120.60
2019-01-25T04:50:59.979Z,119.10
2019-01-25T04:51:59.986Z,122.20
2019-01-25T04:52:59.979Z,121.30
2019-01-25T04:53:59.953Z,123.80
2019-01-25T04:54:59.940Z,130.00
2019-01-25T04:56:00.239Z,125.30
2019-01-25T04:56:59.943Z,121.70
2019-01-25T04:57:59.912Z,130.50
2019-01-25T04:58:59.925Z,120.40
2019-01-25T04:59:59.892Z,120.90
2019-01-25T05:00:59.879Z,132.00
2019-01-25T05:01:59.883Z,121.00
2019-01-25T05:02:59.859Z,139.30
2019-01-25T05:03:59.851Z,126.60
2019-01-25T05:04:59.877Z,124.90
2019-01-25T05:05:59.829Z,128.60
2019-01-25T05:06:59.816Z,124.10
2019-01-25T05:07:59.840Z,126.70
2019-01-25T05:08:59.802Z,127.20
2019-01-25T05:09:59.787Z,127.80
2019-01-25T05:10:59.887Z,118.60
2019-01-25T05:11:59.774Z,122.30
2019-01-25T05:12:59.836Z,130.90
2019-01-25T05:13:59.745Z,132.40
2019-01-25T05:14:59.771Z,133.20
2019-01-25T05:15:59.727Z,135.50
2019-01-25T05:16:59.817Z,123.90
2019-01-25T05:17:59.725Z,124.90
2019-01-25T05:18:59.699Z,138.80
2019-01-25T05:19:59.683Z,126.40
2019-01-25T05:20:59.687Z,120.10
2019-01-25T05:21:59.661Z,128.80
2019-01-25T05:22:59.673Z,120.90
2019-01-25T05:23:59.664Z,124.40
2019-01-25T05:24:59.630Z,125.80
2019-01-25T05:25:59.677Z,136.00
2019-01-25T05:26:59.612Z,130.40
2019-01-25T05:27:59.604Z,120.30
2019-01-25T05:28:59.606Z,133.90
2019-01-25T05:29:59.602Z,117.60
2019-01-25T05:30:59.573Z,114.40
2019-01-25T05:31:59.565Z,123.80
2019-01-25T05:32:59.550Z,117.60
2019-01-25T05:33:59.586Z,119.90
2019-01-25T05:34:59.555Z,113.70
2019-01-25T05:35:59.534Z,123.30
2019-01-25T05:36:59.511Z,123.20
2019-01-25T05:37:59.503Z,115.70
2019-01-25T05:38:59.486Z,129.00
2019-01-25T05:39:59.496Z,119.70
2019-01-25T05:40:59.490Z,122.30
2019-01-25T05:41:59.564Z,132.40
2019-01-25T05:42:59.457Z,119.90
2019-01-25T05:43:59.443Z,116.20
2019-01-25T05:44:59.422Z,115.80
2019-01-25T05:45:59.415Z,109.80
2019-01-25T05:46:59.442Z,120.90
2019-01-25T05:47:59.425Z,116.20
2019-01-25T05:48:59.386Z,112.80
2019-01-25T05:49:59.379Z,119.40
2019-01-25T05:50:59.366Z,112.50
2019-01-25T05:51:59.353Z,114.00
2019-01-25T05:52:59.382Z,114.60
2019-01-25T05:53:59.353Z,116.00
2019-01-25T05:54:59.419Z,122.20
2019-01-25T05:55:59.311Z,120.50
2019-01-25T05:56:59.305Z,119.70
2019-01-25T05:57:59.315Z,120.90
2019-01-25T05:58:59.283Z,120.50
2019-01-25T05:59:59.277Z,112.80
2019-01-25T06:00:59.299Z,114.40
2019-01-25T06:01:59.253Z,114.40
2019-01-25T06:02:59.237Z,118.10
2019-01-25T06:03:59.246Z,112.40
2019-01-25T06:04:59.222Z,122.40
2019-01-25T06:05:59.214Z,117.30
2019-01-25T06:06:59.226Z,114.80
2019-01-25T06:07:59.186Z,117.50
2019-01-25T06:08:59.179Z,110.00
2019-01-25T06:09:59.185Z,116.20
2019-01-25T06:10:59.156Z,122.20
2019-01-25T06:11:59.143Z,124.30
2019-01-25T06:12:59.170Z,123.10
2019-01-25T06:13:59.125Z,119.10
2019-01-25T06:14:59.116Z,112.90
2019-01-25T06:15:59.111Z,118.90
2019-01-25T06:16:59.103Z,113.40
2019-01-25T06:17:59.097Z,119.00
2019-01-25T06:18:59.095Z,132.00
2019-01-25T06:19:59.070Z,110.70
2019-01-25T06:20:59.051Z,113.70
2019-01-25T06:21:59.044Z,113.10
2019-01-25T06:22:59.054Z,119.60
2019-01-25T06:23:59.024Z,121.80
2019-01-25T06:24:59.037Z,114.60
2019-01-25T06:25:59.000Z,113.40
2019-01-25T06:26:58.995Z,117.70
2019-01-25T06:27:59.038Z,108.50
2019-01-25T06:28:58.971Z,116.90
2019-01-25T06:29:58.962Z,114.80
2019-01-25T06:30:58.999Z,120.40
2019-01-25T06:31:58.938Z,113.40
2019-01-25T06:32:58.927Z,107.40
2019-01-25T06:33:58.940Z,115.00
2019-01-25T06:34:58.921Z,114.10
2019-01-25T06:35:58.901Z,118.30
2019-01-25T06:36:58.909Z,109.90
2019-01-25T06:37:59.087Z,119.70
2019-01-25T06:38:58.885Z,111.80
2019-01-25T06:39:58.855Z,110.60
2019-01-25T06:40:58.851Z,117.00
2019-01-25T06:41:58.839Z,114.20
2019-01-25T06:42:58.837Z,116.60
2019-01-25T06:43:58.817Z,119.70
2019-01-25T06:44:58.826Z,125.30
2019-01-25T06:45:58.801Z,115.70
2019-01-25T06:46:58.787Z,122.90
2019-01-25T06:47:58.771Z,110.60
2019-01-25T06:48:58.788Z,122.20
2019-01-25T06:49:58.754Z,121.00
2019-01-25T06:50:58.759Z,115.80
2019-01-25T06:51:58.734Z,115.20
2019-01-25T06:52:58.722Z,117.60
2019-01-25T06:53:58.728Z,121.60
2019-01-25T06:54:58.729Z,115.30
2019-01-25T06:55:58.693Z,113.70
2019-01-25T06:56:58.682Z,111.60
2019-01-25T06:57:58.672Z,113.40
2019-01-25T06:58:58.984Z,117.70
2019-01-25T06:59:58.648Z,121.50
2019-01-25T07:00:58.658Z,108.30
2019-01-25T07:01:58.631Z,110.60
2019-01-25T07:02:58.617Z,127.60
2019-01-25T07:03:58.608Z,126.10
2019-01-25T07:04:58.614Z,113.20
2019-01-25T07:05:58.590Z,120.40
2019-01-25T07:06:58.645Z,116.30
2019-01-25T07:07:58.570Z,121.80
2019-01-25T07:08:58.562Z,127.20
2019-01-25T07:09:58.552Z,125.50
2019-01-25T07:10:58.555Z,122.60
2019-01-25T07:11:58.525Z,121.10
2019-01-25T07:12:58.536Z,123.40
2019-01-25T07:13:58.508Z,115.00
2019-01-25T07:14:58.500Z,119.00
2019-01-25T07:15:58.487Z,116.50
2019-01-25T07:16:58.551Z,118.00
2019-01-25T07:17:58.471Z,124.10
2019-01-25T07:18:58.477Z,120.50
2019-01-25T07:19:58.655Z,113.40
2019-01-25T07:20:58.438Z,116.00
2019-01-25T07:21:58.424Z,111.50
2019-01-25T07:22:58.428Z,118.10
2019-01-25T07:23:58.417Z,120.60
2019-01-25T07:24:58.410Z,100.50
2019-01-25T07:25:58.381Z,117.90
2019-01-25T07:26:58.375Z,108.90
2019-01-25T07:27:58.370Z,124.80
2019-01-25T07:28:58.367Z,114.30
2019-01-25T07:29:58.343Z,121.10
2019-01-25T07:30:58.365Z,115.90
2019-01-25T07:31:58.325Z,130.90
2019-01-25T07:32:58.317Z,116.70
2019-01-25T07:33:58.313Z,107.10
2019-01-25T07:34:58.311Z,108.00
2019-01-25T07:35:58.312Z,113.20
2019-01-25T07:36:58.368Z,112.70
2019-01-25T07:37:58.261Z,112.70
2019-01-25T07:38:58.249Z,113.90
2019-01-25T07:39:58.245Z,100.60
2019-01-25T07:40:58.247Z,108.30
2019-01-25T07:42:00.288Z,106.60
2019-01-25T07:42:58.230Z,113.40
2019-01-25T07:43:58.195Z,111.60
2019-01-25T07:44:58.272Z,106.20
2019-01-25T07:45:58.180Z,110.50
2019-01-25T07:46:58.207Z,105.70
2019-01-25T07:47:58.153Z,94.50
2019-01-25T07:48:58.181Z,95.90
2019-01-25T07:49:58.150Z,94.40
2019-01-25T07:50:58.122Z,98.50
2019-01-25T07:51:58.133Z,89.20
2019-01-25T07:52:58.124Z,88.50
2019-01-25T07:53:58.109Z,92.30
2019-01-25T07:54:58.088Z,87.70
2019-01-25T07:55:58.087Z,96.00
2019-01-25T07:56:58.064Z,89.50
2019-01-25T07:57:58.050Z,84.50
2019-01-25T07:58:58.072Z,81.60
2019-01-25T07:59:58.090Z,80.90
2019-01-25T08:00:58.031Z,78.40
2019-01-25T08:01:58.224Z,76.10
2019-01-25T08:02:58.035Z,83.40
2019-01-25T08:03:57.989Z,78.80
2019-01-25T08:04:57.999Z,75.30
2019-01-25T08:05:57.983Z,75.20
2019-01-25T08:06:57.957Z,91.20
2019-01-25T08:07:57.947Z,79.30
2019-01-25T08:08:57.940Z,79.80
2019-01-25T08:09:57.958Z,82.40
2019-01-25T08:10:58.001Z,89.70
2019-01-25T08:11:57.941Z,81.60
2019-01-25T08:12:57.897Z,94.40
2019-01-25T08:13:57.889Z,86.90
2019-01-25T08:14:57.909Z,83.60
2019-01-25T08:15:57.911Z,72.30
2019-01-25T08:16:57.855Z,81.20
2019-01-25T08:17:57.871Z,70.10
2019-01-25T08:18:57.833Z,72.10
2019-01-25T08:19:59.320Z,73.90
2019-01-25T08:20:57.970Z,77.60
2019-01-25T08:21:57.826Z,75.10
2019-01-25T08:22:57.820Z,70.80
2019-01-25T08:23:57.821Z,68.30
2019-01-25T08:24:57.792Z,70.80
2019-01-25T08:25:57.764Z,66.80
2019-01-25T08:26:57.880Z,70.60
2019-01-25T08:27:57.783Z,64.90
2019-01-25T08:28:57.742Z,65.20
2019-01-25T08:29:57.769Z,66.40
2019-01-25T08:30:57.712Z,62.30
2019-01-25T08:31:57.701Z,64.30
2019-01-25T08:32:57.757Z,63.30
2019-01-25T08:33:57.682Z,75.90
2019-01-25T08:34:57.765Z,79.70
2019-01-25T08:35:57.696Z,67.10
2019-01-25T08:36:57.657Z,75.70
2019-01-25T08:37:57.641Z,76.10
2019-01-25T08:38:57.647Z,78.70
2019-01-25T08:39:57.638Z,79.90
2019-01-25T08:40:57.624Z,76.50
2019-01-25T08:41:57.632Z,93.60
2019-01-25T08:42:57.657Z,93.50
2019-01-25T08:43:57.817Z,98.90
2019-01-25T08:44:59.729Z,92.60
2019-01-25T08:45:57.608Z,92.10
2019-01-25T08:46:57.556Z,100.50
2019-01-25T08:47:57.575Z,105.80
2019-01-25T08:48:57.524Z,107.30
2019-01-25T08:49:58.065Z,109.40
2019-01-25T08:50:57.537Z,100.50
2019-01-25T08:51:57.494Z,103.20
2019-01-25T08:52:57.483Z,118.80
2019-01-25T08:53:57.501Z,94.90
2019-01-25T08:54:57.561Z,97.20
2019-01-25T08:55:57.486Z,103.30
2019-01-25T08:56:57.444Z,114.50
2019-01-25T08:57:57.502Z,116.50
2019-01-25T08:58:58.853Z,111.00
2019-01-25T08:59:57.448Z,106.20
2019-01-25T09:00:57.441Z,103.10
2019-01-25T09:01:57.388Z,102.70
2019-01-25T09:02:57.382Z,106.30
2019-01-25T09:03:57.387Z,102.40
2019-01-25T09:04:57.581Z,98.50
2019-01-25T09:05:57.380Z,93.80
2019-01-25T09:06:57.357Z,100.60
2019-01-25T09:07:57.329Z,94.90
2019-01-25T09:08:57.322Z,99.80
2019-01-25T09:09:57.310Z,89.60
2019-01-25T09:10:57.298Z,95.60
2019-01-25T09:11:57.314Z,99.40
2019-01-25T09:12:57.302Z,99.60
2019-01-25T09:13:57.269Z,101.20
2019-01-25T09:14:57.257Z,91.80
2019-01-25T09:15:57.250Z,99.20
2019-01-25T09:16:57.237Z,96.70
2019-01-25T09:17:57.236Z,88.70
2019-01-25T09:18:57.258Z,103.80
2019-01-25T09:19:57.207Z,96.80
2019-01-25T09:20:57.212Z,100.10
2019-01-25T09:21:57.184Z,99.20
2019-01-25T09:22:57.212Z,97.30
2019-01-25T09:23:57.167Z,99.00
2019-01-25T09:24:57.151Z,94.30
2019-01-25T09:26:00.981Z,94.80
2019-01-25T09:26:57.133Z,100.90
2019-01-25T09:27:57.120Z,109.40
2019-01-25T09:28:57.115Z,111.90
2019-01-25T09:29:57.101Z,94.30
2019-01-25T09:30:57.106Z,102.50
2019-01-25T09:31:57.094Z,101.60
2019-01-25T09:32:57.068Z,98.00
2019-01-25T09:33:57.066Z,105.00
2019-01-25T09:34:57.067Z,114.00
2019-01-25T09:35:57.039Z,100.30
2019-01-25T09:36:57.049Z,110.60
2019-01-25T09:37:57.035Z,107.30
2019-01-25T09:38:57.011Z,102.70
2019-01-25T09:39:57.007Z,114.90
2019-01-25T09:40:56.989Z,119.00
2019-01-25T09:41:56.989Z,108.70
2019-01-25T09:42:56.983Z,107.20
2019-01-25T09:43:56.978Z,98.70
2019-01-25T09:44:56.949Z,96.40
2019-01-25T09:45:56.939Z,98.40
2019-01-25T09:46:56.932Z,110.90
2019-01-25T09:47:56.913Z,97.60
2019-01-25T09:48:56.926Z,94.30
2019-01-25T09:49:56.928Z,103.90
2019-01-25T09:50:56.884Z,98.30
2019-01-25T09:51:56.878Z,105.20
2019-01-25T09:52:56.881Z,100.20
2019-01-25T09:53:56.855Z,107.70
2019-01-25T09:54:56.869Z,111.80
2019-01-25T09:55:56.868Z,108.60
2019-01-25T09:56:56.821Z,103.10
2019-01-25T09:57:56.817Z,107.60
2019-01-25T09:58:56.802Z,114.40
2019-01-25T09:59:56.789Z,104.30
2019-01-25T10:00:56.795Z,109.80
2019-01-25T10:01:56.801Z,115.20
2019-01-25T10:02:56.773Z,98.90
2019-01-25T10:03:56.747Z,102.50
2019-01-25T10:04:56.751Z,110.00
2019-01-25T10:05:56.841Z,117.70
2019-01-25T10:06:56.941Z,103.70
2019-01-25T10:07:56.778Z,106.30
2019-01-25T10:08:56.747Z,111.10
2019-01-25T10:09:56.690Z,104.10
2019-01-25T10:10:56.712Z,111.50
2019-01-25T10:11:56.671Z,110.90
2019-01-25T10:12:56.674Z,116.20
2019-01-25T10:13:56.666Z,109.40
2019-01-25T10:14:56.635Z,105.40
2019-01-25T10:15:56.634Z,105.90
2019-01-25T10:16:56.617Z,114.90
2019-01-25T10:17:56.614Z,118.70
2019-01-25T10:18:56.631Z,110.80
2019-01-25T10:19:56.585Z,115.60
2019-01-25T10:20:56.580Z,117.80
2019-01-25T10:21:56.574Z,114.40
2019-01-25T10:22:56.551Z,127.10
2019-01-25T10:23:56.554Z,127.80
2019-01-25T10:24:56.615Z,125.80
2019-01-25T10:25:56.521Z,116.60
2019-01-25T10:26:56.584Z,129.50
2019-01-25T10:27:57.267Z,130.70
2019-01-25T10:28:56.491Z,124.20
2019-01-25T10:29:57.018Z,124.60
2019-01-25T10:30:56.468Z,134.40
2019-01-25T10:31:56.472Z,137.20
2019-01-25T10:32:56.454Z,141.20
2019-01-25T10:33:56.432Z,128.80
2019-01-25T10:34:56.428Z,139.10
2019-01-25T10:35:56.414Z,138.50
2019-01-25T10:36:56.541Z,146.30
2019-01-25T10:37:56.395Z,149.90
2019-01-25T10:38:56.393Z,146.30
2019-01-25T10:39:56.416Z,147.80
2019-01-25T10:40:56.365Z,153.80
2019-01-25T10:41:56.372Z,151.60
2019-01-25T10:42:56.420Z,149.60
2019-01-25T10:43:56.333Z,162.60
2019-01-25T10:44:56.350Z,156.70
2019-01-25T10:45:56.308Z,157.70
2019-01-25T10:46:56.302Z,162.00
2019-01-25T10:47:56.306Z,166.90
2019-01-25T10:48:56.283Z,158.60
2019-01-25T10:49:56.489Z,175.40
2019-01-25T10:50:56.304Z,164.00
2019-01-25T10:51:56.248Z,159.00
2019-01-25T10:52:56.236Z,172.60
2019-01-25T10:53:56.250Z,177.30
2019-01-25T10:54:56.216Z,162.40
2019-01-25T10:55:56.206Z,171.50
2019-01-25T10:56:56.258Z,183.70
2019-01-25T10:57:56.182Z,168.10
2019-01-25T10:58:56.183Z,164.60
2019-01-25T10:59:56.162Z,168.40
2019-01-25T11:00:56.160Z,170.20
2019-01-25T11:01:56.176Z,168.30
2019-01-25T11:02:58.491Z,160.20
2019-01-25T11:03:56.124Z,154.40
2019-01-25T11:04:56.120Z,159.80
2019-01-25T11:05:56.101Z,151.20
2019-01-25T11:06:56.106Z,161.10
2019-01-25T11:07:56.082Z,142.20
2019-01-25T11:08:56.089Z,138.00
2019-01-25T11:09:56.063Z,145.90
2019-01-25T11:10:56.099Z,156.50
2019-01-25T11:11:56.061Z,161.90
2019-01-25T11:13:00.727Z,155.80
2019-01-25T11:13:57.015Z,159.40
2019-01-25T11:14:56.024Z,162.80
2019-01-25T11:15:55.999Z,149.10
2019-01-25T11:16:56.001Z,153.60
2019-01-25T11:17:55.973Z,173.30
2019-01-25T11:18:55.968Z,155.10
2019-01-25T11:19:55.955Z,170.20
2019-01-25T11:20:55.963Z,158.30
2019-01-25T11:21:55.951Z,168.00
2019-01-25T11:22:55.932Z,160.50
2019-01-25T11:23:55.917Z,159.90
2019-01-25T11:24:55.910Z,158.20
2019-01-25T11:25:55.894Z,174.50
2019-01-25T11:27:00.290Z,167.30
2019-01-25T11:27:55.892Z,174.30
2019-01-25T11:28:55.861Z,165.40
2019-01-25T11:29:55.850Z,170.50
2019-01-25T11:30:55.842Z,171.20
2019-01-25T11:31:55.848Z,172.90
2019-01-25T11:32:55.848Z,153.30
2019-01-25T11:33:55.826Z,171.40
2019-01-25T11:34:55.796Z,154.80
2019-01-25T11:35:55.787Z,177.20
2019-01-25T11:36:55.776Z,172.90
2019-01-25T11:37:55.768Z,170.30
2019-01-25T11:38:55.783Z,157.70
2019-01-25T11:39:55.761Z,171.40
2019-01-25T11:40:55.735Z,153.40
2019-01-25T11:41:55.727Z,166.90
2019-01-25T11:42:55.714Z,160.10
2019-01-25T11:43:55.707Z,166.00
2019-01-25T11:44:55.720Z,170.30
2019-01-25T11:45:55.700Z,159.80
2019-01-25T11:46:55.672Z,161.00
2019-01-25T11:47:55.691Z,159.50
2019-01-25T11:48:55.655Z,157.60
2019-01-25T11:49:55.649Z,177.40
2019-01-25T11:50:55.651Z,148.50
2019-01-25T11:51:55.623Z,167.00
2019-01-25T11:52:55.696Z,161.50
2019-01-25T11:53:55.615Z,166.30
2019-01-25T11:54:55.588Z,162.90
2019-01-25T11:55:55.578Z,145.90
2019-01-25T11:56:55.583Z,137.40
2019-01-25T11:57:55.555Z,149.80
2019-01-25T11:58:55.571Z,147.10
2019-01-25T11:59:55.539Z,136.10
2019-01-25T12:00:55.528Z,136.30
2019-01-25T12:01:55.576Z,118.80
2019-01-25T12:02:55.537Z,132.20
2019-01-25T12:03:55.500Z,130.80
2019-01-25T12:04:55.507Z,131.10
2019-01-25T12:05:56.891Z,137.20
2019-01-25T12:06:55.468Z,110.00
2019-01-25T12:07:55.451Z,129.50
2019-01-25T12:08:55.464Z,113.40
2019-01-25T12:09:55.439Z,136.00
2019-01-25T12:10:55.439Z,114.00
2019-01-25T12:11:55.412Z,112.10
2019-01-25T12:12:55.403Z,113.50
2019-01-25T12:13:55.389Z,109.60
2019-01-25T12:14:55.400Z,109.80
2019-01-25T12:15:55.373Z,108.10
2019-01-25T12:16:55.384Z,107.30
2019-01-25T12:17:55.353Z,114.40
2019-01-25T12:18:55.343Z,110.00
2019-01-25T12:19:55.335Z,98.70
2019-01-25T12:20:55.359Z,107.70
2019-01-25T12:21:55.309Z,110.20
2019-01-25T12:22:55.319Z,110.90
2019-01-25T12:23:55.287Z,108.40
2019-01-25T12:24:55.276Z,119.20
2019-01-25T12:25:55.268Z,111.10
2019-01-25T12:26:55.291Z,118.70
2019-01-25T12:27:55.268Z,114.40
2019-01-25T12:28:55.272Z,108.70
2019-01-25T12:29:55.222Z,108.10
2019-01-25T12:30:55.214Z,103.50
2019-01-25T12:31:55.206Z,100.30
2019-01-25T12:32:55.608Z,116.40
2019-01-25T12:33:55.186Z,112.80
2019-01-25T12:34:55.177Z,104.90
2019-01-25T12:35:55.163Z,110.80
2019-01-25T12:36:55.154Z,106.60